Time;durP1;ratioP1;P1;durP2;ratioP2;P2;SDS_P1;SDS_P2;PMS_P1;PMS_P2;Temp;Humidity;BMP_temperature;BMP_pressure;BME280_temperature;BME280_humidity;BME280_pressure;Samples;Min_cycle;Max_cycle;Signal;HPM_P1;HPM_P2
2022/10/10 00:01:18;;;;;;;0.25;0.25;;;;;;;;;;5067157;28;20028;-76
2022/10/10 00:03:44;;;;;;;1.00;0.70;;;;;;;;;;5054247;28;20580;-78
2022/10/10 00:06:10;;;;;;;0.30;0.30;;;;;;;;;;5055881;28;20041;-78
2022/10/10 00:08:36;;;;;;;0.25;0.25;;;;;;;;;;5054429;28;20033;-78
2022/10/10 00:11:01;;;;;;;0.45;0.45;;;;;;;;;;5055891;28;20503;-78
2022/10/10 00:13:27;;;;;;;0.80;0.80;;;;;;;;;;5054326;28;20516;-78
2022/10/10 00:15:52;;;;;;;0.85;0.85;;;;;;;;;;5054355;28;20112;-79
2022/10/10 00:18:18;;;;;;;3.95;3.75;;;;;;;;;;5055508;28;20080;-76
2022/10/10 00:20:43;;;;;;;0.20;0.20;;;;;;;;;;5055557;28;20063;-77
2022/10/10 00:23:09;;;;;;;0.45;0.45;;;;;;;;;;5055718;28;20036;-75
2022/10/10 00:25:35;;;;;;;0.20;0.20;;;;;;;;;;5055148;28;20029;-75
2022/10/10 00:28:01;;;;;;;3.50;1.27;;;;;;;;;;5055331;28;20400;-75
2022/10/10 00:30:27;;;;;;;3.35;3.20;;;;;;;;;;5055177;28;20049;-74
2022/10/10 00:32:52;;;;;;;0.85;0.85;;;;;;;;;;5054919;28;20457;-75
2022/10/10 00:35:18;;;;;;;5.93;5.60;;;;;;;;;;5055001;28;20029;-75
2022/10/10 00:37:45;;;;;;;1.33;1.33;;;;;;;;;;5055325;28;20064;-75
2022/10/10 00:40:12;;;;;;;0.70;0.65;;;;;;;;;;5054487;28;20047;-74
2022/10/10 00:42:37;;;;;;;0.20;0.20;;;;;;;;;;5055033;28;20025;-74
2022/10/10 00:45:21;;;;;;;0.20;0.20;;;;;;;;;;5054960;28;20463;-74
2022/10/10 00:47:47;;;;;;;0.28;0.28;;;;;;;;;;5055041;28;20472;-74
2022/10/10 00:50:13;;;;;;;0.63;0.63;;;;;;;;;;5054983;28;20025;-74
2022/10/10 00:52:38;;;;;;;0.25;0.25;;;;;;;;;;5055192;28;20047;-75
2022/10/10 00:55:04;;;;;;;0.20;0.20;;;;;;;;;;5053689;28;20522;-74
2022/10/10 00:57:30;;;;;;;1.95;1.85;;;;;;;;;;5054658;28;20059;-74
2022/10/10 00:59:55;;;;;;;0.20;0.20;;;;;;;;;;5053258;28;20061;-74
2022/10/10 01:02:21;;;;;;;0.20;0.20;;;;;;;;;;5054625;28;20025;-75
2022/10/10 01:04:46;;;;;;;0.17;0.17;;;;;;;;;;5054481;28;20056;-74
2022/10/10 01:07:16;;;;;;;0.20;0.20;;;;;;;;;;5055009;28;20025;-74
2022/10/10 01:09:42;;;;;;;0.77;0.77;;;;;;;;;;5054537;28;20039;-75
2022/10/10 01:12:14;;;;;;;0.20;0.20;;;;;;;;;;5053111;28;20063;-75
2022/10/10 01:14:58;;;;;;;0.77;0.77;;;;;;;;;;5054221;28;20082;-75
2022/10/10 01:17:36;;;;;;;0.20;0.20;;;;;;;;;;5054327;28;20481;-75
2022/10/10 01:20:04;;;;;;;0.90;0.90;;;;;;;;;;5054362;28;20044;-74
2022/10/10 01:22:39;;;;;;;0.65;0.65;;;;;;;;;;5054730;28;20033;-74
2022/10/10 01:25:17;;;;;;;1.30;1.20;;;;;;;;;;5054133;28;20029;-74
2022/10/10 01:27:42;;;;;;;0.20;0.20;;;;;;;;;;5054501;28;20395;-74
2022/10/10 01:30:16;;;;;;;3.53;2.58;;;;;;;;;;5054307;28;20100;-75
2022/10/10 01:32:45;;;;;;;0.20;0.20;;;;;;;;;;5052976;28;20091;-74
2022/10/10 01:35:11;;;;;;;;;;;;;;;;;;5054548;28;20025;-75
2022/10/10 01:37:53;;;;;;;0.20;0.20;;;;;;;;;;5054920;28;19995;-74
2022/10/10 01:40:29;;;;;;;0.20;0.20;;;;;;;;;;5054192;28;20304;-74
2022/10/10 01:42:56;;;;;;;0.20;0.20;;;;;;;;;;5054065;28;20032;-73
2022/10/10 01:45:22;;;;;;;0.20;0.20;;;;;;;;;;5054020;28;20037;-73
2022/10/10 01:47:48;;;;;;;0.30;0.30;;;;;;;;;;5053048;28;20021;-75
2022/10/10 01:50:17;;;;;;;0.50;0.50;;;;;;;;;;5053683;28;20033;-75
2022/10/10 01:52:42;;;;;;;0.63;0.63;;;;;;;;;;5054282;28;20016;-75
2022/10/10 01:55:08;;;;;;;0.30;0.30;;;;;;;;;;5053792;28;20029;-73
2022/10/10 01:57:33;;;;;;;0.30;0.30;;;;;;;;;;5052553;28;20057;-73
2022/10/10 02:00:05;;;;;;;0.20;0.20;;;;;;;;;;5053734;28;20040;-73
2022/10/10 02:02:49;;;;;;;0.70;0.70;;;;;;;;;;5053687;28;20059;-72
2022/10/10 02:05:14;;;;;;;0.25;0.25;;;;;;;;;;5053791;28;20025;-74
2022/10/10 02:07:58;;;;;;;0.20;0.20;;;;;;;;;;5053824;28;20029;-75
2022/10/10 02:10:26;;;;;;;1.65;1.55;;;;;;;;;;5053901;28;20346;-74
2022/10/10 02:12:53;;;;;;;0.20;0.20;;;;;;;;;;5053603;28;20104;-74
2022/10/10 02:15:20;;;;;;;0.20;0.20;;;;;;;;;;5053334;28;20090;-74
2022/10/10 02:17:47;;;;;;;0.20;0.20;;;;;;;;;;5053412;28;20139;-74
2022/10/10 02:20:15;;;;;;;0.20;0.20;;;;;;;;;;5052304;28;20097;-75
2022/10/10 02:22:43;;;;;;;0.30;0.30;;;;;;;;;;5052624;28;20520;-75
2022/10/10 02:25:09;;;;;;;0.20;0.20;;;;;;;;;;5051881;28;20029;-75
2022/10/10 02:27:43;;;;;;;0.55;0.55;;;;;;;;;;5053265;28;20035;-73
2022/10/10 02:30:10;;;;;;;0.20;0.20;;;;;;;;;;5051484;28;20059;-74
2022/10/10 02:32:38;;;;;;;0.20;0.20;;;;;;;;;;5053286;28;20013;-75
2022/10/10 02:35:09;;;;;;;0.25;0.25;;;;;;;;;;5053339;28;20043;-74
2022/10/10 02:37:35;;;;;;;0.20;0.20;;;;;;;;;;5053610;28;20032;-74
2022/10/10 02:40:03;;;;;;;3.00;2.80;;;;;;;;;;5051781;28;20025;-74
2022/10/10 02:42:29;;;;;;;1.45;1.38;;;;;;;;;;5051681;28;20460;-75
2022/10/10 02:44:55;;;;;;;0.20;0.20;;;;;;;;;;5053249;28;20044;-75
2022/10/10 02:47:21;;;;;;;0.25;0.25;;;;;;;;;;5053273;28;20082;-76
2022/10/10 02:49:46;;;;;;;0.28;0.28;;;;;;;;;;5051952;28;20111;-75
2022/10/10 02:52:13;;;;;;;0.30;0.30;;;;;;;;;;5052331;28;20120;-76
2022/10/10 02:54:39;;;;;;;0.20;0.20;;;;;;;;;;5053045;28;20028;-76
2022/10/10 02:57:05;;;;;;;0.30;0.30;;;;;;;;;;5053053;28;20033;-75
2022/10/10 02:59:30;;;;;;;0.52;0.52;;;;;;;;;;5051750;28;20048;-75
2022/10/10 03:01:56;;;;;;;0.25;0.25;;;;;;;;;;5051893;28;20032;-72
2022/10/10 03:04:21;;;;;;;0.20;0.20;;;;;;;;;;5052583;28;20503;-74
2022/10/10 03:06:47;;;;;;;0.20;0.20;;;;;;;;;;5053304;28;20025;-74
2022/10/10 03:09:13;;;;;;;0.20;0.20;;;;;;;;;;5053461;28;20523;-75
2022/10/10 03:11:38;;;;;;;0.20;0.20;;;;;;;;;;5051712;28;20507;-74
2022/10/10 03:14:04;;;;;;;0.10;0.10;;;;;;;;;;5053289;28;20029;-75
2022/10/10 03:16:29;;;;;;;0.20;0.20;;;;;;;;;;5053163;28;20049;-76
2022/10/10 03:18:55;;;;;;;0.82;0.82;;;;;;;;;;5052621;28;20459;-75
2022/10/10 03:21:20;;;;;;;1.45;0.77;;;;;;;;;;5053203;28;20037;-75
2022/10/10 03:23:46;;;;;;;0.10;0.10;;;;;;;;;;5053166;28;20115;-75
2022/10/10 03:26:11;;;;;;;0.20;0.20;;;;;;;;;;5052864;28;20079;-75
2022/10/10 03:28:37;;;;;;;0.20;0.20;;;;;;;;;;5051726;28;20037;-76
2022/10/10 03:31:02;;;;;;;0.20;0.20;;;;;;;;;;5052547;28;20025;-76
2022/10/10 03:33:28;;;;;;;0.20;0.20;;;;;;;;;;5051863;28;20032;-77
2022/10/10 03:35:53;;;;;;;0.13;0.13;;;;;;;;;;5053007;28;20059;-74
2022/10/10 03:38:19;;;;;;;0.73;0.47;;;;;;;;;;5052397;28;20029;-74
2022/10/10 03:40:45;;;;;;;0.50;0.50;;;;;;;;;;5052521;28;20460;-75
2022/10/10 03:43:11;;;;;;;0.20;0.20;;;;;;;;;;5052328;28;20059;-75
2022/10/10 03:45:37;;;;;;;0.20;0.20;;;;;;;;;;5052627;28;20021;-76
2022/10/10 03:48:03;;;;;;;0.43;0.43;;;;;;;;;;5052407;28;20507;-76
2022/10/10 03:50:28;;;;;;;0.20;0.20;;;;;;;;;;5052477;28;20025;-76
2022/10/10 03:52:54;;;;;;;0.20;0.20;;;;;;;;;;5052538;28;20024;-78
2022/10/10 03:55:19;;;;;;;0.20;0.20;;;;;;;;;;5052141;28;20624;-79
2022/10/10 03:57:45;;;;;;;0.20;0.20;;;;;;;;;;5052190;28;20740;-77
2022/10/10 04:00:11;;;;;;;0.20;0.20;;;;;;;;;;5051994;28;20476;-76
2022/10/10 04:02:36;;;;;;;0.20;0.20;;;;;;;;;;5052490;28;20131;-75
2022/10/10 04:05:02;;;;;;;0.28;0.28;;;;;;;;;;5051952;28;20017;-75
2022/10/10 04:07:28;;;;;;;0.22;0.22;;;;;;;;;;5052148;28;20048;-75
2022/10/10 04:09:54;;;;;;;0.20;0.20;;;;;;;;;;5052371;28;20412;-72
2022/10/10 04:12:19;;;;;;;0.28;0.28;;;;;;;;;;5052021;28;20047;-75
2022/10/10 04:14:45;;;;;;;0.30;0.30;;;;;;;;;;5049956;28;20473;-74
2022/10/10 04:17:10;;;;;;;0.20;0.20;;;;;;;;;;5051574;28;20049;-75
2022/10/10 04:19:36;;;;;;;0.20;0.20;;;;;;;;;;5051747;28;20123;-75
2022/10/10 04:22:01;;;;;;;0.28;0.28;;;;;;;;;;5063981;28;20471;-75
2022/10/10 04:24:27;;;;;;;0.20;0.20;;;;;;;;;;5071984;28;20472;-75
2022/10/10 04:26:52;;;;;;;0.20;0.20;;;;;;;;;;5051626;28;20059;-74
2022/10/10 04:29:18;;;;;;;0.20;0.20;;;;;;;;;;5051651;28;20067;-73
2022/10/10 04:31:43;;;;;;;1.05;1.05;;;;;;;;;;5061227;28;20020;-73
2022/10/10 04:34:09;;;;;;;0.88;0.88;;;;;;;;;;5067855;28;20483;-78
2022/10/10 04:36:35;;;;;;;0.20;0.20;;;;;;;;;;5058328;28;20027;-78
2022/10/10 04:39:02;;;;;;;0.20;0.20;;;;;;;;;;5050229;28;20503;-78
2022/10/10 04:41:29;;;;;;;0.20;0.20;;;;;;;;;;5050183;28;20118;-78
2022/10/10 04:43:54;;;;;;;0.50;0.50;;;;;;;;;;5051769;28;20033;-77
2022/10/10 04:46:20;;;;;;;0.20;0.20;;;;;;;;;;5052027;28;20025;-76
2022/10/10 04:48:45;;;;;;;0.20;0.20;;;;;;;;;;5049652;28;20033;-76
2022/10/10 04:51:11;;;;;;;0.20;0.20;;;;;;;;;;5051597;28;20472;-75
2022/10/10 04:53:36;;;;;;;0.25;0.25;;;;;;;;;;5050980;28;20027;-73
2022/10/10 04:56:02;;;;;;;0.20;0.20;;;;;;;;;;5054437;28;20350;-75
2022/10/10 04:58:27;;;;;;;0.20;0.20;;;;;;;;;;5051174;28;20021;-75
2022/10/10 05:00:53;;;;;;;0.40;0.40;;;;;;;;;;5056147;28;20102;-73
2022/10/10 05:03:20;;;;;;;0.15;0.15;;;;;;;;;;5070798;28;20357;-74
2022/10/10 05:05:45;;;;;;;0.30;0.30;;;;;;;;;;5070554;28;20029;-74
2022/10/10 05:08:11;;;;;;;0.20;0.20;;;;;;;;;;5053515;28;20032;-73
2022/10/10 05:10:38;;;;;;;3.53;3.30;;;;;;;;;;5050768;28;20043;-75
2022/10/10 05:13:04;;;;;;;0.20;0.20;;;;;;;;;;5050445;28;20031;-72
2022/10/10 05:15:30;;;;;;;0.28;0.28;;;;;;;;;;5050830;28;20020;-72
2022/10/10 05:17:55;;;;;;;0.20;0.20;;;;;;;;;;5049232;28;20053;-74
2022/10/10 05:20:21;;;;;;;0.35;0.35;;;;;;;;;;5050622;28;20048;-73
2022/10/10 05:22:46;;;;;;;1.42;1.38;;;;;;;;;;5050277;28;20491;-74
2022/10/10 05:25:12;;;;;;;0.20;0.20;;;;;;;;;;5049129;28;20064;-75
2022/10/10 05:27:37;;;;;;;0.20;0.20;;;;;;;;;;5050128;28;20029;-74
2022/10/10 05:30:04;;;;;;;2.78;2.58;;;;;;;;;;5050333;28;20123;-73
2022/10/10 05:32:29;;;;;;;0.20;0.20;;;;;;;;;;5068220;28;20044;-74
2022/10/10 05:34:55;;;;;;;0.20;0.20;;;;;;;;;;5070057;28;20460;-73
2022/10/10 05:37:20;;;;;;;0.10;0.10;;;;;;;;;;5058799;28;20021;-73
2022/10/10 05:39:47;;;;;;;0.55;0.55;;;;;;;;;;5050076;28;20093;-72
2022/10/10 05:42:13;;;;;;;0.20;0.20;;;;;;;;;;5035690;28;20063;-73
2022/10/10 05:44:39;;;;;;;0.30;0.30;;;;;;;;;;5048847;28;20202;-73
2022/10/10 05:47:04;;;;;;;0.20;0.20;;;;;;;;;;5049913;28;20116;-75
2022/10/10 05:49:30;;;;;;;0.20;0.20;;;;;;;;;;5052652;28;20539;-75
2022/10/10 05:51:55;;;;;;;0.30;0.30;;;;;;;;;;5059515;28;20043;-75
2022/10/10 05:54:21;;;;;;;0.20;0.20;;;;;;;;;;5061997;28;20453;-75
2022/10/10 05:56:47;;;;;;;0.35;0.35;;;;;;;;;;5049476;28;20032;-75
2022/10/10 05:59:12;;;;;;;0.20;0.20;;;;;;;;;;5049945;28;20419;-74
2022/10/10 06:01:38;;;;;;;0.15;0.15;;;;;;;;;;5048844;28;20017;-74
2022/10/10 06:04:03;;;;;;;0.50;0.50;;;;;;;;;;5050162;28;20032;-76
2022/10/10 06:06:29;;;;;;;0.20;0.20;;;;;;;;;;5050162;28;20402;-73
2022/10/10 06:08:55;;;;;;;0.25;0.25;;;;;;;;;;5049575;28;20037;-74
2022/10/10 06:11:22;;;;;;;0.20;0.20;;;;;;;;;;5048660;28;20084;-75
2022/10/10 06:13:52;;;;;;;0.15;0.15;;;;;;;;;;5049591;28;20359;-76
2022/10/10 06:16:18;;;;;;;0.20;0.20;;;;;;;;;;5049935;28;20058;-75
2022/10/10 06:18:43;;;;;;;0.20;0.20;;;;;;;;;;5049592;28;20050;-75
2022/10/10 06:21:10;;;;;;;0.30;0.30;;;;;;;;;;5049913;28;20029;-76
2022/10/10 06:23:36;;;;;;;0.28;0.28;;;;;;;;;;5050101;28;20037;-75
2022/10/10 06:26:01;;;;;;;0.20;0.20;;;;;;;;;;5049301;28;20031;-76
2022/10/10 06:28:27;;;;;;;0.45;0.45;;;;;;;;;;5031692;28;20067;-74
2022/10/10 06:30:53;;;;;;;0.20;0.20;;;;;;;;;;5056252;28;20021;-76
2022/10/10 06:33:18;;;;;;;0.20;0.20;;;;;;;;;;5068940;28;20029;-75
2022/10/10 06:35:46;;;;;;;0.15;0.15;;;;;;;;;;5049715;28;20025;-75
2022/10/10 06:38:11;;;;;;;0.20;0.20;;;;;;;;;;5047933;28;20029;-75
2022/10/10 06:40:38;;;;;;;0.22;0.22;;;;;;;;;;5049720;28;20059;-76
2022/10/10 06:43:06;;;;;;;0.22;0.22;;;;;;;;;;5049130;28;20029;-75
2022/10/10 06:45:34;;;;;;;0.22;0.22;;;;;;;;;;5049698;28;20064;-76
2022/10/10 06:47:59;;;;;;;1.00;1.00;;;;;;;;;;5049262;28;20028;-76
2022/10/10 06:50:25;;;;;;;0.20;0.20;;;;;;;;;;5049655;28;20017;-75
2022/10/10 06:52:51;;;;;;;0.70;0.70;;;;;;;;;;5049692;28;20029;-76
2022/10/10 06:55:16;;;;;;;0.20;0.20;;;;;;;;;;5049591;28;20545;-76
2022/10/10 06:57:42;;;;;;;0.28;0.28;;;;;;;;;;5049014;28;20021;-75
2022/10/10 07:00:08;;;;;;;0.20;0.20;;;;;;;;;;5014792;28;20048;-75
2022/10/10 07:02:33;;;;;;;0.20;0.20;;;;;;;;;;5056498;28;20480;-75
2022/10/10 07:04:59;;;;;;;3.42;1.42;;;;;;;;;;5057361;28;20040;-75
2022/10/10 07:07:24;;;;;;;0.20;0.20;;;;;;;;;;5049165;28;20383;-74
2022/10/10 07:09:50;;;;;;;1.75;1.65;;;;;;;;;;5049026;28;20090;-73
2022/10/10 07:12:15;;;;;;;0.20;0.20;;;;;;;;;;5049060;28;20075;-74
2022/10/10 07:14:41;;;;;;;0.20;0.20;;;;;;;;;;5049070;28;20472;-76
2022/10/10 07:17:06;;;;;;;3.70;3.17;;;;;;;;;;5048585;28;20087;-72
2022/10/10 07:19:32;;;;;;;0.40;0.40;;;;;;;;;;5048686;28;20037;-74
2022/10/10 07:21:57;;;;;;;0.30;0.30;;;;;;;;;;5049115;28;20080;-75
2022/10/10 07:24:23;;;;;;;0.20;0.20;;;;;;;;;;5048907;28;20736;-74
2022/10/10 07:26:48;;;;;;;0.20;0.20;;;;;;;;;;5052629;28;20157;-75
2022/10/10 07:29:14;;;;;;;0.30;0.30;;;;;;;;;;5060133;28;20593;-77
2022/10/10 07:31:39;;;;;;;1.17;1.10;;;;;;;;;;5068722;28;20036;-77
2022/10/10 07:34:05;;;;;;;8.38;2.72;;;;;;;;;;5054013;28;20028;-71
2022/10/10 07:36:30;;;;;;;0.20;0.20;;;;;;;;;;5049000;28;20426;-70
2022/10/10 07:38:56;;;;;;;0.30;0.30;;;;;;;;;;5048602;28;20120;-70
2022/10/10 07:41:21;;;;;;;0.20;0.20;;;;;;;;;;5049095;28;20032;-70
2022/10/10 07:43:47;;;;;;;2.30;2.20;;;;;;;;;;5048061;28;20473;-70
2022/10/10 07:46:16;;;;;;;1.92;1.83;;;;;;;;;;5052551;28;20029;-70
2022/10/10 07:48:42;;;;;;;0.47;0.47;;;;;;;;;;5056134;28;20031;-70
2022/10/10 07:51:07;;;;;;;0.68;0.68;;;;;;;;;;5056544;28;20021;-70
2022/10/10 07:53:33;;;;;;;0.22;0.22;;;;;;;;;;5052211;28;20498;-71
2022/10/10 07:55:58;;;;;;;0.20;0.20;;;;;;;;;;5050731;28;20036;-70
2022/10/10 07:58:24;;;;;;;0.20;0.20;;;;;;;;;;5064187;28;20074;-70
2022/10/10 08:00:49;;;;;;;0.40;0.40;;;;;;;;;;5054442;28;20124;-71
2022/10/10 08:03:15;;;;;;;0.20;0.20;;;;;;;;;;5054537;28;20028;-71
2022/10/10 08:05:41;;;;;;;0.30;0.30;;;;;;;;;;5067131;28;20129;-70
2022/10/10 08:08:08;;;;;;;0.22;0.22;;;;;;;;;;5052166;28;20484;-70
2022/10/10 08:10:33;;;;;;;0.30;0.30;;;;;;;;;;5051645;28;20041;-70
2022/10/10 08:12:58;;;;;;;0.30;0.30;;;;;;;;;;5050842;28;20060;-70
2022/10/10 08:15:24;;;;;;;0.20;0.20;;;;;;;;;;5057311;28;20094;-70
2022/10/10 08:17:49;;;;;;;0.20;0.20;;;;;;;;;;5051406;28;20060;-73
2022/10/10 08:20:15;;;;;;;0.20;0.20;;;;;;;;;;5052011;28;20041;-70
2022/10/10 08:22:40;;;;;;;0.30;0.30;;;;;;;;;;5051067;28;20036;-71
2022/10/10 08:25:06;;;;;;;0.40;0.40;;;;;;;;;;5050717;28;20530;-70
2022/10/10 08:27:32;;;;;;;0.30;0.30;;;;;;;;;;5061232;28;20025;-70
2022/10/10 08:29:57;;;;;;;0.30;0.30;;;;;;;;;;5071000;28;20066;-70
2022/10/10 08:32:23;;;;;;;0.20;0.20;;;;;;;;;;5069436;28;20490;-70
2022/10/10 08:34:49;;;;;;;0.20;0.20;;;;;;;;;;5069533;28;20495;-70
2022/10/10 08:37:14;;;;;;;0.20;0.20;;;;;;;;;;5069718;28;20028;-70
2022/10/10 08:39:40;;;;;;;0.20;0.20;;;;;;;;;;5070155;28;20420;-70
2022/10/10 08:42:06;;;;;;;0.20;0.20;;;;;;;;;;5068473;28;20027;-71
2022/10/10 08:44:31;;;;;;;0.20;0.20;;;;;;;;;;5067874;28;20025;-71
2022/10/10 08:47:01;;;;;;;0.20;0.20;;;;;;;;;;5068361;28;20108;-70
2022/10/10 08:49:39;;;;;;;0.28;0.28;;;;;;;;;;5068890;28;20046;-71
2022/10/10 08:52:23;;;;;;;0.20;0.20;;;;;;;;;;5069036;28;20618;-71
2022/10/10 08:54:50;;;;;;;0.20;0.20;;;;;;;;;;5068067;28;20383;-70
2022/10/10 08:57:25;;;;;;;0.20;0.20;;;;;;;;;;5068511;28;20024;-71
2022/10/10 08:59:52;;;;;;;0.20;0.20;;;;;;;;;;5071026;28;20040;-70
2022/10/10 09:02:18;;;;;;;0.30;0.30;;;;;;;;;;5070309;28;20029;-70
2022/10/10 09:04:43;;;;;;;0.30;0.30;;;;;;;;;;5070987;28;20567;-70
2022/10/10 09:07:27;;;;;;;0.20;0.20;;;;;;;;;;5069481;28;20040;-70
2022/10/10 09:10:08;;;;;;;0.20;0.20;;;;;;;;;;5069374;28;20122;-71
2022/10/10 09:12:43;;;;;;;0.30;0.30;;;;;;;;;;5069526;28;20032;-72
2022/10/10 09:15:09;;;;;;;0.20;0.20;;;;;;;;;;5070868;28;20099;-71
2022/10/10 09:17:40;;;;;;;0.20;0.20;;;;;;;;;;5070378;28;20049;-71
2022/10/10 09:20:14;;;;;;;0.30;0.30;;;;;;;;;;5070771;28;20131;-71
2022/10/10 09:22:45;;;;;;;0.25;0.25;;;;;;;;;;5070830;28;20024;-70
2022/10/10 09:25:30;;;;;;;0.25;0.25;;;;;;;;;;5070507;28;20036;-71
2022/10/10 09:28:02;;;;;;;0.20;0.20;;;;;;;;;;5066182;28;20499;-71
2022/10/10 09:30:30;;;;;;;0.28;0.28;;;;;;;;;;5070177;28;20498;-71
2022/10/10 09:33:16;;;;;;;1.10;1.05;;;;;;;;;;5070206;28;20431;-71
2022/10/10 09:35:42;;;;;;;0.20;0.20;;;;;;;;;;5069922;28;20521;-71
2022/10/10 09:38:30;;;;;;;2.28;1.45;;;;;;;;;;5068715;28;20112;-71
2022/10/10 09:40:58;;;;;;;0.57;0.57;;;;;;;;;;5069758;28;20403;-71
2022/10/10 09:43:28;;;;;;;0.20;0.20;;;;;;;;;;5068838;28;20468;-71
2022/10/10 09:45:55;;;;;;;;;;;;;;;;;;5070623;28;20036;-71
2022/10/10 09:48:22;;;;;;;0.80;0.73;;;;;;;;;;5070068;28;19908;-71
2022/10/10 09:50:47;;;;;;;0.68;0.68;;;;;;;;;;5068235;28;20029;-70
2022/10/10 09:53:14;;;;;;;0.20;0.20;;;;;;;;;;5069682;28;20391;-70
2022/10/10 09:55:40;;;;;;;0.20;0.20;;;;;;;;;;5070003;28;20475;-72
2022/10/10 09:58:24;;;;;;;0.30;0.30;;;;;;;;;;5069943;28;20130;-72
2022/10/10 10:00:49;;;;;;;1.35;1.08;;;;;;;;;;5068217;28;20396;-71
2022/10/10 10:03:17;;;;;;;0.20;0.20;;;;;;;;;;5069806;28;20055;-71
2022/10/10 10:05:44;;;;;;;0.30;0.30;;;;;;;;;;5069697;28;20107;-71
2022/10/10 10:08:17;;;;;;;0.38;0.38;;;;;;;;;;5069609;28;20032;-72
2022/10/10 10:10:43;;;;;;;1.02;1.00;;;;;;;;;;5069415;28;20028;-71
2022/10/10 10:13:13;;;;;;;2.75;1.63;;;;;;;;;;5067204;28;20036;-71
2022/10/10 10:15:39;;;;;;;0.75;0.75;;;;;;;;;;5069369;28;20036;-71
2022/10/10 10:18:18;;;;;;;0.20;0.20;;;;;;;;;;5069176;28;20064;-71
2022/10/10 10:20:45;;;;;;;0.32;0.32;;;;;;;;;;5069587;28;20119;-71
2022/10/10 10:23:30;;;;;;;0.20;0.20;;;;;;;;;;5069700;28;20031;-71
2022/10/10 10:26:05;;;;;;;0.22;0.22;;;;;;;;;;5069588;28;20451;-71
2022/10/10 10:28:31;;;;;;;0.43;0.43;;;;;;;;;;5069697;28;20037;-72
2022/10/10 10:30:57;;;;;;;0.40;0.40;;;;;;;;;;5068065;28;20427;-73
2022/10/10 10:33:26;;;;;;;0.93;0.52;;;;;;;;;;5069651;28;20024;-72
2022/10/10 10:36:14;;;;;;;0.30;0.30;;;;;;;;;;5069279;28;20440;-72
2022/10/10 10:38:49;;;;;;;0.40;0.40;;;;;;;;;;5068864;28;20029;-72
2022/10/10 10:41:14;;;;;;;4.38;1.48;;;;;;;;;;5069310;28;20425;-72
2022/10/10 10:43:53;;;;;;;0.30;0.30;;;;;;;;;;5069241;28;20162;-72
2022/10/10 10:46:26;;;;;;;0.20;0.20;;;;;;;;;;5069595;28;20103;-72
2022/10/10 10:48:54;;;;;;;0.20;0.20;;;;;;;;;;5069100;28;20032;-72
2022/10/10 10:51:43;;;;;;;0.30;0.30;;;;;;;;;;5069463;28;20521;-71
2022/10/10 10:54:08;;;;;;;1.15;1.05;;;;;;;;;;5065804;28;20044;-71
2022/10/10 10:56:37;;;;;;;0.20;0.20;;;;;;;;;;5069474;28;20664;-71
2022/10/10 10:59:09;;;;;;;0.30;0.30;;;;;;;;;;5068848;28;20170;-71
2022/10/10 11:01:50;;;;;;;0.30;0.30;;;;;;;;;;5068074;28;20029;-71
2022/10/10 11:04:34;;;;;;;1.77;1.67;;;;;;;;;;5068950;28;20032;-72
2022/10/10 11:06:59;;;;;;;2.00;1.15;;;;;;;;;;5068918;28;20056;-72
2022/10/10 11:09:35;;;;;;;5.18;4.72;;;;;;;;;;5068841;28;20064;-72
2022/10/10 11:12:21;;;;;;;0.75;0.65;;;;;;;;;;5068230;28;20058;-72
2022/10/10 11:14:52;;;;;;;0.28;0.28;;;;;;;;;;5064660;28;20136;-71
2022/10/10 11:17:18;;;;;;;1.08;1.08;;;;;;;;;;5066514;28;20085;-72
2022/10/10 11:19:55;;;;;;;0.30;0.30;;;;;;;;;;5067216;28;20072;-72
2022/10/10 11:22:41;;;;;;;0.40;0.40;;;;;;;;;;5052678;28;20025;-73
2022/10/10 11:25:27;;;;;;;1.08;0.98;;;;;;;;;;5050885;28;20099;-73
2022/10/10 11:28:00;;;;;;;0.30;0.30;;;;;;;;;;5059075;28;20032;-72
2022/10/10 11:30:29;;;;;;;1.77;1.60;;;;;;;;;;5053768;28;20091;-72
2022/10/10 11:33:00;;;;;;;1.45;1.10;;;;;;;;;;5059321;28;20544;-72
2022/10/10 11:35:55;;;;;;;1.73;1.33;;;;;;;;;;5052486;28;20033;-72
2022/10/10 11:38:32;;;;;;;0.50;0.50;;;;;;;;;;5042786;28;20076;-73
2022/10/10 11:41:04;;;;;;;1.23;0.93;;;;;;;;;;5063425;28;20045;-72
2022/10/10 11:43:32;;;;;;;0.40;0.40;;;;;;;;;;5072597;28;20521;-72
2022/10/10 11:46:12;;;;;;;0.38;0.38;;;;;;;;;;5072581;28;20242;-73
2022/10/10 11:48:46;;;;;;;0.43;0.43;;;;;;;;;;5072683;28;20036;-72
2022/10/10 11:51:20;;;;;;;0.73;0.70;;;;;;;;;;5063976;28;20107;-72
2022/10/10 11:53:47;;;;;;;2.90;1.05;;;;;;;;;;5052090;28;20518;-72
2022/10/10 11:56:20;;;;;;;0.82;0.75;;;;;;;;;;5050992;28;20385;-71
2022/10/10 11:58:49;;;;;;;5.43;1.65;;;;;;;;;;5051602;28;20035;-72
2022/10/10 12:01:15;;;;;;;;;;;;;;;;;;5061036;28;20108;-72
2022/10/10 12:03:40;;;;;;;2.20;1.50;;;;;;;;;;5067894;28;20003;-72
2022/10/10 12:06:13;;;;;;;2.47;1.30;;;;;;;;;;5072072;28;20094;-72
2022/10/10 12:08:45;;;;;;;0.85;0.70;;;;;;;;;;5054422;28;20471;-72
2022/10/10 12:11:10;;;;;;;22.00;2.35;;;;;;;;;;5069731;28;20028;-71
2022/10/10 12:13:41;;;;;;;1.02;0.90;;;;;;;;;;5054707;28;20028;-71
2022/10/10 12:16:09;;;;;;;0.88;0.70;;;;;;;;;;5051785;28;20021;-72
2022/10/10 12:18:39;;;;;;;0.60;0.60;;;;;;;;;;5034214;28;20218;-72
2022/10/10 12:21:07;;;;;;;2.88;1.25;;;;;;;;;;5052266;28;20401;-71
2022/10/10 12:23:33;;;;;;;6.78;2.38;;;;;;;;;;5051514;28;20033;-71
2022/10/10 12:26:00;;;;;;;0.20;0.20;;;;;;;;;;5071143;28;20067;-72
2022/10/10 12:28:49;;;;;;;2.58;1.77;;;;;;;;;;5070178;28;20365;-72
2022/10/10 12:31:26;;;;;;;3.60;2.25;;;;;;;;;;5072068;28;20487;-71
2022/10/10 12:33:58;;;;;;;5.00;1.67;;;;;;;;;;5071850;28;20040;-72
2022/10/10 12:36:27;;;;;;;0.63;0.60;;;;;;;;;;5070775;28;20067;-71
2022/10/10 12:39:06;;;;;;;1.02;0.65;;;;;;;;;;5063436;28;20021;-72
2022/10/10 12:41:47;;;;;;;5.15;2.55;;;;;;;;;;5054914;28;20036;-72
2022/10/10 12:44:25;;;;;;;0.30;0.30;;;;;;;;;;5050528;28;20017;-71
2022/10/10 12:47:14;;;;;;;0.90;0.68;;;;;;;;;;5050812;28;20489;-72
2022/10/10 12:49:49;;;;;;;1.80;1.20;;;;;;;;;;5051468;28;20064;-71
2022/10/10 12:52:21;;;;;;;1.98;1.45;;;;;;;;;;5051120;28;20032;-71
2022/10/10 12:54:46;;;;;;;1.70;1.50;;;;;;;;;;5050952;28;20025;-71
2022/10/10 12:57:32;;;;;;;4.18;0.90;;;;;;;;;;5051124;28;20045;-71
2022/10/10 13:00:04;;;;;;;1.58;1.20;;;;;;;;;;5051603;28;20102;-72
2022/10/10 13:02:33;;;;;;;2.78;0.88;;;;;;;;;;5051704;28;20037;-71
2022/10/10 13:05:01;;;;;;;0.40;0.40;;;;;;;;;;5049281;28;20025;-73
2022/10/10 13:07:26;;;;;;;3.40;1.85;;;;;;;;;;5049906;28;20035;-72
2022/10/10 13:09:54;;;;;;;1.48;1.05;;;;;;;;;;5050274;28;20025;-73
2022/10/10 13:12:24;;;;;;;2.38;1.55;;;;;;;;;;5050785;28;20572;-72
2022/10/10 13:14:50;;;;;;;0.28;0.28;;;;;;;;;;5049486;28;20037;-72
2022/10/10 13:17:19;;;;;;;2.33;1.75;;;;;;;;;;5049368;28;20060;-72
2022/10/10 13:19:44;;;;;;;6.30;1.43;;;;;;;;;;5050923;28;20056;-72
2022/10/10 13:22:10;;;;;;;5.63;1.92;;;;;;;;;;5050833;28;20024;-73
2022/10/10 13:24:36;;;;;;;0.38;0.38;;;;;;;;;;5050252;28;20151;-72
2022/10/10 13:27:02;;;;;;;0.52;0.52;;;;;;;;;;5049091;28;20117;-73
2022/10/10 13:29:30;;;;;;;1.98;1.30;;;;;;;;;;5049369;28;20105;-73
2022/10/10 13:31:58;;;;;;;4.90;1.25;;;;;;;;;;5049860;28;20029;-72
2022/10/10 13:34:25;;;;;;;3.17;1.35;;;;;;;;;;5050535;28;20502;-72
2022/10/10 13:36:55;;;;;;;1.60;0.77;;;;;;;;;;5050264;28;20396;-70
2022/10/10 13:39:21;;;;;;;1.55;0.88;;;;;;;;;;5050759;28;20037;-72
2022/10/10 13:41:51;;;;;;;1.35;0.90;;;;;;;;;;5050630;28;20040;-73
2022/10/10 13:44:23;;;;;;;1.67;1.02;;;;;;;;;;5050538;28;20044;-72
2022/10/10 13:46:48;;;;;;;1.88;1.10;;;;;;;;;;5065410;28;20047;-72
2022/10/10 13:49:22;;;;;;;1.30;0.68;;;;;;;;;;5070299;28;20020;-72
2022/10/10 13:51:58;;;;;;;1.38;0.95;;;;;;;;;;5060419;28;20039;-73
2022/10/10 13:54:41;;;;;;;1.02;0.93;;;;;;;;;;5050520;28;20108;-72
2022/10/10 13:57:26;;;;;;;7.68;0.90;;;;;;;;;;5050273;28;20021;-73
2022/10/10 14:00:00;;;;;;;0.70;0.63;;;;;;;;;;5050049;28;20048;-74
2022/10/10 14:02:33;;;;;;;0.20;0.13;;;;;;;;;;5050652;28;20020;-73
2022/10/10 14:05:03;;;;;;;0.20;0.20;;;;;;;;;;5047281;28;20036;-73
2022/10/10 14:07:29;;;;;;;0.20;0.20;;;;;;;;;;5067228;28;20025;-71
2022/10/10 14:09:59;;;;;;;2.10;0.60;;;;;;;;;;5066597;28;20035;-72
2022/10/10 14:12:25;;;;;;;3.83;3.55;;;;;;;;;;5070056;28;20029;-72
2022/10/10 14:14:52;;;;;;;2.90;1.52;;;;;;;;;;5067945;28;20503;-72
2022/10/10 14:17:17;;;;;;;0.10;0.10;;;;;;;;;;5067375;28;20044;-73
2022/10/10 14:19:44;;;;;;;0.22;0.22;;;;;;;;;;5050216;28;20544;-72
2022/10/10 14:22:10;;;;;;;0.20;0.20;;;;;;;;;;5048789;28;20049;-73
2022/10/10 14:24:36;;;;;;;0.20;0.20;;;;;;;;;;5047796;28;20021;-72
2022/10/10 14:27:19;;;;;;;0.20;0.20;;;;;;;;;;5068722;28;20044;-72
2022/10/10 14:29:45;;;;;;;0.22;0.22;;;;;;;;;;5068567;28;20440;-72
2022/10/10 14:32:12;;;;;;;0.20;0.20;;;;;;;;;;5069646;28;20055;-72
2022/10/10 14:34:38;;;;;;;0.20;0.20;;;;;;;;;;5064982;28;20056;-72
2022/10/10 14:37:04;;;;;;;0.45;0.45;;;;;;;;;;5048876;28;20640;-72
2022/10/10 14:39:30;;;;;;;0.20;0.20;;;;;;;;;;5047434;28;20037;-72
2022/10/10 14:41:56;;;;;;;0.22;0.22;;;;;;;;;;5049909;28;20028;-72
2022/10/10 14:44:21;;;;;;;0.20;0.20;;;;;;;;;;5049430;28;20040;-72
2022/10/10 14:46:47;;;;;;;0.20;0.20;;;;;;;;;;5048143;28;20025;-72
2022/10/10 14:49:20;;;;;;;0.20;0.20;;;;;;;;;;5049262;28;20029;-72
2022/10/10 14:51:46;;;;;;;0.20;0.20;;;;;;;;;;5049475;28;20029;-72